New York, New York
Traffic Map
Current Weather Conditions
New York, New York
Clear
Clear
31°
Feels Like: 31°
Wind Chill: 31° Ceiling: Unl
Heat Index: 31° Visibility: 9mi
Dew Point: 18° Wind: 8mph
Humidity: 46% Direction: 290° (WNW)
Pressure: 29.98in Gusts: 0mph
Raw Report DataKNYC 312251Z AUTO 29007KT 9SM CLR 31/18 A2998 RMK AO2 SLP141 T03060178 $
Traffic Incident Summary
Active as of:
Severity:
Category:
InformationThere was an issue retrieving the traffic information for this location. Please try a different location or try again shortly.
Advertisements
Track Severe Weather on mobile